sensor_id;sensor_type;location;lat;lon;timestamp;P1;durP1;ratioP1;P2;durP2;ratioP2
79204;SDS011;68632;47.512;19.104;2023-11-22T00:00:27;31.38;;;21.00;;
79204;SDS011;68632;47.512;19.104;2023-11-22T00:01:29;29.73;;;19.15;;
79204;SDS011;68632;47.512;19.104;2023-11-22T00:02:35;32.92;;;19.83;;
79204;SDS011;68632;47.512;19.104;2023-11-22T00:03:37;26.77;;;18.58;;
79204;SDS011;68632;47.512;19.104;2023-11-22T00:04:39;32.45;;;21.33;;
79204;SDS011;68632;47.512;19.104;2023-11-22T00:05:42;31.33;;;20.77;;
79204;SDS011;68632;47.512;19.104;2023-11-22T00:06:44;29.65;;;19.65;;
79204;SDS011;68632;47.512;19.104;2023-11-22T00:07:46;32.85;;;20.02;;
79204;SDS011;68632;47.512;19.104;2023-11-22T00:08:49;34.17;;;20.90;;
79204;SDS011;68632;47.512;19.104;2023-11-22T00:09:51;34.00;;;21.85;;
79204;SDS011;68632;47.512;19.104;2023-11-22T00:10:54;27.48;;;18.55;;
79204;SDS011;68632;47.512;19.104;2023-11-22T00:11:57;33.75;;;19.30;;
79204;SDS011;68632;47.512;19.104;2023-11-22T00:12:59;29.60;;;19.40;;
79204;SDS011;68632;47.512;19.104;2023-11-22T00:14:01;31.70;;;18.80;;
79204;SDS011;68632;47.512;19.104;2023-11-22T00:15:04;31.73;;;19.30;;
79204;SDS011;68632;47.512;19.104;2023-11-22T00:16:08;27.88;;;19.60;;
79204;SDS011;68632;47.512;19.104;2023-11-22T00:17:11;28.30;;;18.52;;
79204;SDS011;68632;47.512;19.104;2023-11-22T00:18:14;30.90;;;18.92;;
79204;SDS011;68632;47.512;19.104;2023-11-22T00:19:16;28.27;;;19.42;;
79204;SDS011;68632;47.512;19.104;2023-11-22T00:20:20;34.13;;;20.02;;
79204;SDS011;68632;47.512;19.104;2023-11-22T00:21:23;26.30;;;17.05;;
79204;SDS011;68632;47.512;19.104;2023-11-22T00:22:25;30.73;;;20.77;;
79204;SDS011;68632;47.512;19.104;2023-11-22T00:23:29;27.63;;;18.17;;
79204;SDS011;68632;47.512;19.104;2023-11-22T00:24:32;34.28;;;20.63;;
79204;SDS011;68632;47.512;19.104;2023-11-22T00:25:34;30.80;;;19.75;;
79204;SDS011;68632;47.512;19.104;2023-11-22T00:26:36;29.52;;;20.70;;
79204;SDS011;68632;47.512;19.104;2023-11-22T00:27:38;30.55;;;20.48;;
79204;SDS011;68632;47.512;19.104;2023-11-22T00:28:41;31.40;;;19.15;;
79204;SDS011;68632;47.512;19.104;2023-11-22T00:29:43;28.15;;;18.98;;
79204;SDS011;68632;47.512;19.104;2023-11-22T00:30:45;28.60;;;18.05;;
79204;SDS011;68632;47.512;19.104;2023-11-22T00:31:47;30.58;;;18.90;;
79204;SDS011;68632;47.512;19.104;2023-11-22T00:32:49;29.70;;;18.75;;
79204;SDS011;68632;47.512;19.104;2023-11-22T00:33:53;28.63;;;18.13;;
79204;SDS011;68632;47.512;19.104;2023-11-22T00:34:55;28.10;;;18.33;;
79204;SDS011;68632;47.512;19.104;2023-11-22T00:35:57;27.77;;;16.23;;
79204;SDS011;68632;47.512;19.104;2023-11-22T00:37:00;26.55;;;18.17;;
79204;SDS011;68632;47.512;19.104;2023-11-22T00:38:02;26.88;;;17.95;;
79204;SDS011;68632;47.512;19.104;2023-11-22T00:39:04;33.65;;;18.70;;
79204;SDS011;68632;47.512;19.104;2023-11-22T00:40:07;29.75;;;18.70;;
79204;SDS011;68632;47.512;19.104;2023-11-22T00:41:13;25.83;;;18.05;;
79204;SDS011;68632;47.512;19.104;2023-11-22T00:42:16;27.52;;;17.58;;
79204;SDS011;68632;47.512;19.104;2023-11-22T00:43:22;29.75;;;19.10;;
79204;SDS011;68632;47.512;19.104;2023-11-22T00:44:24;30.27;;;18.67;;
79204;SDS011;68632;47.512;19.104;2023-11-22T00:45:26;29.55;;;18.92;;
79204;SDS011;68632;47.512;19.104;2023-11-22T00:46:28;30.38;;;19.13;;
79204;SDS011;68632;47.512;19.104;2023-11-22T00:47:31;28.13;;;18.27;;
79204;SDS011;68632;47.512;19.104;2023-11-22T00:48:34;27.15;;;18.08;;
79204;SDS011;68632;47.512;19.104;2023-11-22T00:49:36;28.30;;;17.58;;
79204;SDS011;68632;47.512;19.104;2023-11-22T00:50:39;30.30;;;18.27;;
79204;SDS011;68632;47.512;19.104;2023-11-22T00:51:41;29.70;;;18.60;;
79204;SDS011;68632;47.512;19.104;2023-11-22T00:52:43;26.60;;;16.30;;
79204;SDS011;68632;47.512;19.104;2023-11-22T00:53:47;25.73;;;16.90;;
79204;SDS011;68632;47.512;19.104;2023-11-22T00:54:49;30.05;;;17.13;;
79204;SDS011;68632;47.512;19.104;2023-11-22T00:55:51;27.80;;;18.80;;
79204;SDS011;68632;47.512;19.104;2023-11-22T00:56:54;35.03;;;18.48;;
79204;SDS011;68632;47.512;19.104;2023-11-22T00:57:57;28.40;;;17.42;;
79204;SDS011;68632;47.512;19.104;2023-11-22T00:59:05;29.70;;;17.40;;
79204;SDS011;68632;47.512;19.104;2023-11-22T01:00:07;30.23;;;18.65;;
79204;SDS011;68632;47.512;19.104;2023-11-22T01:01:11;26.85;;;17.23;;
79204;SDS011;68632;47.512;19.104;2023-11-22T01:02:13;27.88;;;19.33;;
79204;SDS011;68632;47.512;19.104;2023-11-22T01:03:16;30.73;;;18.38;;
79204;SDS011;68632;47.512;19.104;2023-11-22T01:04:18;34.90;;;20.60;;
79204;SDS011;68632;47.512;19.104;2023-11-22T01:05:20;33.22;;;18.50;;
79204;SDS011;68632;47.512;19.104;2023-11-22T01:06:24;29.77;;;17.95;;
79204;SDS011;68632;47.512;19.104;2023-11-22T01:07:26;30.60;;;19.05;;
79204;SDS011;68632;47.512;19.104;2023-11-22T01:08:28;30.30;;;18.98;;
79204;SDS011;68632;47.512;19.104;2023-11-22T01:09:31;30.50;;;19.20;;
79204;SDS011;68632;47.512;19.104;2023-11-22T01:10:33;31.38;;;19.63;;
79204;SDS011;68632;47.512;19.104;2023-11-22T01:11:36;31.05;;;18.55;;
79204;SDS011;68632;47.512;19.104;2023-11-22T01:12:38;30.58;;;19.05;;
79204;SDS011;68632;47.512;19.104;2023-11-22T01:13:40;30.60;;;18.25;;
79204;SDS011;68632;47.512;19.104;2023-11-22T01:14:44;30.95;;;17.65;;
79204;SDS011;68632;47.512;19.104;2023-11-22T01:15:46;25.95;;;17.33;;
79204;SDS011;68632;47.512;19.104;2023-11-22T01:16:49;31.33;;;18.83;;
79204;SDS011;68632;47.512;19.104;2023-11-22T01:17:51;30.20;;;18.75;;
79204;SDS011;68632;47.512;19.104;2023-11-22T01:18:53;30.48;;;19.85;;
79204;SDS011;68632;47.512;19.104;2023-11-22T01:19:55;34.58;;;19.58;;
79204;SDS011;68632;47.512;19.104;2023-11-22T01:20:58;31.52;;;18.58;;
79204;SDS011;68632;47.512;19.104;2023-11-22T01:22:00;29.85;;;18.85;;
79204;SDS011;68632;47.512;19.104;2023-11-22T01:23:02;30.30;;;18.75;;
79204;SDS011;68632;47.512;19.104;2023-11-22T01:24:04;31.17;;;18.88;;
79204;SDS011;68632;47.512;19.104;2023-11-22T01:25:07;32.08;;;20.13;;
79204;SDS011;68632;47.512;19.104;2023-11-22T01:26:09;33.33;;;20.38;;
79204;SDS011;68632;47.512;19.104;2023-11-22T01:27:11;34.03;;;20.65;;
79204;SDS011;68632;47.512;19.104;2023-11-22T01:28:13;33.88;;;18.70;;
79204;SDS011;68632;47.512;19.104;2023-11-22T01:29:16;28.17;;;18.35;;
79204;SDS011;68632;47.512;19.104;2023-11-22T01:30:18;33.38;;;20.50;;
79204;SDS011;68632;47.512;19.104;2023-11-22T01:31:20;31.23;;;19.52;;
79204;SDS011;68632;47.512;19.104;2023-11-22T01:32:23;32.20;;;20.15;;
79204;SDS011;68632;47.512;19.104;2023-11-22T01:33:26;27.10;;;19.23;;
79204;SDS011;68632;47.512;19.104;2023-11-22T01:34:29;29.10;;;18.50;;
79204;SDS011;68632;47.512;19.104;2023-11-22T01:35:31;31.63;;;18.58;;
79204;SDS011;68632;47.512;19.104;2023-11-22T01:36:33;26.80;;;17.05;;
79204;SDS011;68632;47.512;19.104;2023-11-22T01:37:35;29.20;;;18.52;;
79204;SDS011;68632;47.512;19.104;2023-11-22T01:38:38;31.70;;;19.08;;
79204;SDS011;68632;47.512;19.104;2023-11-22T01:39:41;30.17;;;18.27;;
79204;SDS011;68632;47.512;19.104;2023-11-22T01:40:46;34.95;;;20.25;;
79204;SDS011;68632;47.512;19.104;2023-11-22T01:41:49;26.60;;;17.42;;
79204;SDS011;68632;47.512;19.104;2023-11-22T01:42:51;29.40;;;18.75;;
79204;SDS011;68632;47.512;19.104;2023-11-22T01:43:53;29.80;;;18.48;;
79204;SDS011;68632;47.512;19.104;2023-11-22T01:44:56;29.25;;;19.35;;
79204;SDS011;68632;47.512;19.104;2023-11-22T01:45:58;32.92;;;17.55;;
79204;SDS011;68632;47.512;19.104;2023-11-22T01:47:01;29.92;;;17.10;;
79204;SDS011;68632;47.512;19.104;2023-11-22T01:48:04;30.70;;;19.42;;
79204;SDS011;68632;47.512;19.104;2023-11-22T01:49:08;26.77;;;18.23;;
79204;SDS011;68632;47.512;19.104;2023-11-22T01:50:11;31.63;;;18.23;;
79204;SDS011;68632;47.512;19.104;2023-11-22T01:51:14;29.23;;;18.13;;
79204;SDS011;68632;47.512;19.104;2023-11-22T01:52:16;29.25;;;17.55;;
79204;SDS011;68632;47.512;19.104;2023-11-22T01:53:18;30.00;;;18.23;;
79204;SDS011;68632;47.512;19.104;2023-11-22T01:54:21;27.52;;;17.33;;
79204;SDS011;68632;47.512;19.104;2023-11-22T01:55:25;27.90;;;18.55;;
79204;SDS011;68632;47.512;19.104;2023-11-22T01:56:27;26.65;;;18.13;;
79204;SDS011;68632;47.512;19.104;2023-11-22T01:57:31;26.63;;;17.23;;
79204;SDS011;68632;47.512;19.104;2023-11-22T01:58:38;33.88;;;17.92;;
79204;SDS011;68632;47.512;19.104;2023-11-22T01:59:40;25.95;;;17.13;;
79204;SDS011;68632;47.512;19.104;2023-11-22T02:00:45;27.70;;;18.23;;
79204;SDS011;68632;47.512;19.104;2023-11-22T02:01:53;28.35;;;17.00;;
79204;SDS011;68632;47.512;19.104;2023-11-22T02:02:57;25.90;;;15.45;;
79204;SDS011;68632;47.512;19.104;2023-11-22T02:03:59;27.35;;;16.85;;
79204;SDS011;68632;47.512;19.104;2023-11-22T02:05:03;29.08;;;17.90;;
79204;SDS011;68632;47.512;19.104;2023-11-22T02:06:05;28.70;;;17.42;;
79204;SDS011;68632;47.512;19.104;2023-11-22T02:07:08;29.98;;;18.17;;
79204;SDS011;68632;47.512;19.104;2023-11-22T02:08:10;27.13;;;16.88;;
79204;SDS011;68632;47.512;19.104;2023-11-22T02:09:13;25.42;;;17.73;;
79204;SDS011;68632;47.512;19.104;2023-11-22T02:10:17;29.27;;;17.73;;
79204;SDS011;68632;47.512;19.104;2023-11-22T02:11:19;27.92;;;16.42;;
79204;SDS011;68632;47.512;19.104;2023-11-22T02:12:24;31.85;;;18.58;;
79204;SDS011;68632;47.512;19.104;2023-11-22T02:13:26;29.38;;;17.80;;
79204;SDS011;68632;47.512;19.104;2023-11-22T02:14:28;28.38;;;16.42;;
79204;SDS011;68632;47.512;19.104;2023-11-22T02:15:31;27.02;;;16.95;;
79204;SDS011;68632;47.512;19.104;2023-11-22T02:16:33;24.52;;;15.98;;
79204;SDS011;68632;47.512;19.104;2023-11-22T02:17:36;27.48;;;17.45;;
79204;SDS011;68632;47.512;19.104;2023-11-22T02:18:38;30.00;;;17.73;;
79204;SDS011;68632;47.512;19.104;2023-11-22T02:19:40;28.30;;;17.63;;
79204;SDS011;68632;47.512;19.104;2023-11-22T02:20:42;25.17;;;15.60;;
79204;SDS011;68632;47.512;19.104;2023-11-22T02:21:45;27.00;;;15.80;;
79204;SDS011;68632;47.512;19.104;2023-11-22T02:22:47;26.42;;;14.25;;
79204;SDS011;68632;47.512;19.104;2023-11-22T02:23:49;26.55;;;15.48;;
79204;SDS011;68632;47.512;19.104;2023-11-22T02:24:52;26.48;;;15.20;;
79204;SDS011;68632;47.512;19.104;2023-11-22T02:25:54;30.25;;;16.98;;
79204;SDS011;68632;47.512;19.104;2023-11-22T02:26:56;29.58;;;16.70;;
79204;SDS011;68632;47.512;19.104;2023-11-22T02:27:58;26.30;;;15.88;;
79204;SDS011;68632;47.512;19.104;2023-11-22T02:29:00;24.85;;;15.20;;
79204;SDS011;68632;47.512;19.104;2023-11-22T02:30:03;27.10;;;16.17;;
79204;SDS011;68632;47.512;19.104;2023-11-22T02:31:08;25.85;;;15.88;;
79204;SDS011;68632;47.512;19.104;2023-11-22T02:32:10;27.30;;;13.75;;
79204;SDS011;68632;47.512;19.104;2023-11-22T02:33:13;25.95;;;16.38;;
79204;SDS011;68632;47.512;19.104;2023-11-22T02:34:15;27.40;;;14.82;;
79204;SDS011;68632;47.512;19.104;2023-11-22T02:35:17;26.65;;;16.52;;
79204;SDS011;68632;47.512;19.104;2023-11-22T02:36:20;24.33;;;14.73;;
79204;SDS011;68632;47.512;19.104;2023-11-22T02:37:22;24.70;;;13.57;;
79204;SDS011;68632;47.512;19.104;2023-11-22T02:38:26;24.75;;;15.43;;
79204;SDS011;68632;47.512;19.104;2023-11-22T02:39:41;23.95;;;15.20;;
79204;SDS011;68632;47.512;19.104;2023-11-22T02:40:49;28.90;;;16.52;;
79204;SDS011;68632;47.512;19.104;2023-11-22T02:41:52;21.88;;;14.90;;
79204;SDS011;68632;47.512;19.104;2023-11-22T02:42:54;24.38;;;15.35;;
79204;SDS011;68632;47.512;19.104;2023-11-22T02:43:59;23.92;;;13.75;;
79204;SDS011;68632;47.512;19.104;2023-11-22T02:45:02;24.13;;;14.80;;
79204;SDS011;68632;47.512;19.104;2023-11-22T02:46:04;23.40;;;14.20;;
79204;SDS011;68632;47.512;19.104;2023-11-22T02:47:06;22.52;;;13.65;;
79204;SDS011;68632;47.512;19.104;2023-11-22T02:48:08;20.27;;;13.45;;
79204;SDS011;68632;47.512;19.104;2023-11-22T02:49:11;24.08;;;13.88;;
79204;SDS011;68632;47.512;19.104;2023-11-22T02:50:13;20.65;;;14.27;;
79204;SDS011;68632;47.512;19.104;2023-11-22T02:51:16;18.83;;;13.32;;
79204;SDS011;68632;47.512;19.104;2023-11-22T02:52:19;18.85;;;12.38;;
79204;SDS011;68632;47.512;19.104;2023-11-22T02:53:21;21.70;;;13.75;;
79204;SDS011;68632;47.512;19.104;2023-11-22T02:54:23;21.17;;;12.65;;
79204;SDS011;68632;47.512;19.104;2023-11-22T02:55:25;18.27;;;10.38;;
79204;SDS011;68632;47.512;19.104;2023-11-22T02:56:27;18.52;;;9.55;;
79204;SDS011;68632;47.512;19.104;2023-11-22T02:57:30;18.00;;;10.60;;
79204;SDS011;68632;47.512;19.104;2023-11-22T02:58:33;18.15;;;11.63;;
79204;SDS011;68632;47.512;19.104;2023-11-22T02:59:35;19.20;;;11.52;;
79204;SDS011;68632;47.512;19.104;2023-11-22T03:00:39;18.95;;;10.75;;
79204;SDS011;68632;47.512;19.104;2023-11-22T03:01:42;22.00;;;12.57;;
79204;SDS011;68632;47.512;19.104;2023-11-22T03:02:48;19.45;;;11.90;;
79204;SDS011;68632;47.512;19.104;2023-11-22T03:03:56;24.90;;;15.00;;
79204;SDS011;68632;47.512;19.104;2023-11-22T03:04:58;22.70;;;12.27;;
79204;SDS011;68632;47.512;19.104;2023-11-22T03:06:00;23.98;;;14.68;;
79204;SDS011;68632;47.512;19.104;2023-11-22T03:07:03;24.77;;;13.18;;
79204;SDS011;68632;47.512;19.104;2023-11-22T03:08:05;25.45;;;15.48;;
79204;SDS011;68632;47.512;19.104;2023-11-22T03:09:09;28.48;;;15.35;;
79204;SDS011;68632;47.512;19.104;2023-11-22T03:10:11;24.52;;;14.30;;
79204;SDS011;68632;47.512;19.104;2023-11-22T03:11:14;26.25;;;14.23;;
79204;SDS011;68632;47.512;19.104;2023-11-22T03:12:16;22.33;;;12.10;;
79204;SDS011;68632;47.512;19.104;2023-11-22T03:13:20;18.77;;;12.15;;
79204;SDS011;68632;47.512;19.104;2023-11-22T03:14:22;20.35;;;12.85;;
79204;SDS011;68632;47.512;19.104;2023-11-22T03:15:24;23.55;;;12.88;;
79204;SDS011;68632;47.512;19.104;2023-11-22T03:16:26;22.90;;;13.07;;
79204;SDS011;68632;47.512;19.104;2023-11-22T03:17:29;19.65;;;11.20;;
79204;SDS011;68632;47.512;19.104;2023-11-22T03:18:31;22.50;;;11.98;;
79204;SDS011;68632;47.512;19.104;2023-11-22T03:19:33;21.55;;;11.90;;
79204;SDS011;68632;47.512;19.104;2023-11-22T03:20:36;17.35;;;10.80;;
79204;SDS011;68632;47.512;19.104;2023-11-22T03:21:39;14.90;;;9.65;;
79204;SDS011;68632;47.512;19.104;2023-11-22T03:22:42;17.08;;;10.30;;
79204;SDS011;68632;47.512;19.104;2023-11-22T03:24:52;17.20;;;10.65;;
79204;SDS011;68632;47.512;19.104;2023-11-22T03:25:54;18.98;;;11.25;;
79204;SDS011;68632;47.512;19.104;2023-11-22T03:26:56;21.10;;;11.98;;
79204;SDS011;68632;47.512;19.104;2023-11-22T03:28:00;18.42;;;9.38;;
79204;SDS011;68632;47.512;19.104;2023-11-22T03:29:03;16.10;;;9.75;;
79204;SDS011;68632;47.512;19.104;2023-11-22T03:30:05;23.38;;;11.35;;
79204;SDS011;68632;47.512;19.104;2023-11-22T03:31:13;15.95;;;10.18;;
79204;SDS011;68632;47.512;19.104;2023-11-22T03:32:15;18.58;;;11.40;;
79204;SDS011;68632;47.512;19.104;2023-11-22T03:33:19;17.52;;;11.45;;
79204;SDS011;68632;47.512;19.104;2023-11-22T03:34:22;18.95;;;10.18;;
79204;SDS011;68632;47.512;19.104;2023-11-22T03:35:24;19.67;;;11.90;;
79204;SDS011;68632;47.512;19.104;2023-11-22T03:36:26;19.50;;;11.65;;
79204;SDS011;68632;47.512;19.104;2023-11-22T03:37:29;19.70;;;10.93;;
79204;SDS011;68632;47.512;19.104;2023-11-22T03:38:31;19.48;;;11.30;;
79204;SDS011;68632;47.512;19.104;2023-11-22T03:39:33;19.35;;;11.50;;
79204;SDS011;68632;47.512;19.104;2023-11-22T03:40:35;18.17;;;9.73;;
79204;SDS011;68632;47.512;19.104;2023-11-22T03:41:38;19.98;;;12.10;;
79204;SDS011;68632;47.512;19.104;2023-11-22T03:42:40;20.80;;;11.45;;
79204;SDS011;68632;47.512;19.104;2023-11-22T03:43:43;17.02;;;10.02;;
79204;SDS011;68632;47.512;19.104;2023-11-22T03:44:45;15.82;;;9.90;;
79204;SDS011;68632;47.512;19.104;2023-11-22T03:45:47;17.60;;;10.57;;
79204;SDS011;68632;47.512;19.104;2023-11-22T03:46:50;15.85;;;8.60;;
79204;SDS011;68632;47.512;19.104;2023-11-22T03:47:53;18.80;;;10.48;;
79204;SDS011;68632;47.512;19.104;2023-11-22T03:48:55;18.02;;;10.63;;
79204;SDS011;68632;47.512;19.104;2023-11-22T03:49:57;18.05;;;11.10;;
79204;SDS011;68632;47.512;19.104;2023-11-22T03:50:59;17.60;;;10.32;;
79204;SDS011;68632;47.512;19.104;2023-11-22T03:52:02;23.13;;;11.65;;
79204;SDS011;68632;47.512;19.104;2023-11-22T03:53:04;17.65;;;9.73;;
79204;SDS011;68632;47.512;19.104;2023-11-22T03:54:07;18.80;;;11.40;;
79204;SDS011;68632;47.512;19.104;2023-11-22T03:55:11;19.50;;;11.32;;
79204;SDS011;68632;47.512;19.104;2023-11-22T03:56:14;18.45;;;10.05;;
79204;SDS011;68632;47.512;19.104;2023-11-22T03:57:16;17.40;;;10.18;;
79204;SDS011;68632;47.512;19.104;2023-11-22T03:58:18;21.27;;;12.35;;
79204;SDS011;68632;47.512;19.104;2023-11-22T03:59:20;17.73;;;10.32;;
79204;SDS011;68632;47.512;19.104;2023-11-22T04:00:23;21.58;;;10.88;;
79204;SDS011;68632;47.512;19.104;2023-11-22T04:01:26;22.80;;;11.13;;
79204;SDS011;68632;47.512;19.104;2023-11-22T04:02:28;24.00;;;13.15;;
79204;SDS011;68632;47.512;19.104;2023-11-22T04:03:31;23.77;;;12.60;;
79204;SDS011;68632;47.512;19.104;2023-11-22T04:04:34;16.48;;;12.15;;
79204;SDS011;68632;47.512;19.104;2023-11-22T04:05:36;25.60;;;13.27;;
79204;SDS011;68632;47.512;19.104;2023-11-22T04:06:38;20.95;;;11.68;;
79204;SDS011;68632;47.512;19.104;2023-11-22T04:07:41;19.52;;;10.95;;
79204;SDS011;68632;47.512;19.104;2023-11-22T04:08:43;21.67;;;12.35;;
79204;SDS011;68632;47.512;19.104;2023-11-22T04:09:45;22.35;;;11.75;;
79204;SDS011;68632;47.512;19.104;2023-11-22T04:10:48;24.67;;;12.73;;
79204;SDS011;68632;47.512;19.104;2023-11-22T04:11:50;20.70;;;11.23;;
79204;SDS011;68632;47.512;19.104;2023-11-22T04:12:52;27.73;;;13.50;;
79204;SDS011;68632;47.512;19.104;2023-11-22T04:13:54;19.85;;;11.32;;
79204;SDS011;68632;47.512;19.104;2023-11-22T04:14:57;22.30;;;12.18;;
79204;SDS011;68632;47.512;19.104;2023-11-22T04:16:00;17.67;;;10.13;;
79204;SDS011;68632;47.512;19.104;2023-11-22T04:17:02;20.08;;;10.07;;
79204;SDS011;68632;47.512;19.104;2023-11-22T04:18:05;19.35;;;13.20;;
79204;SDS011;68632;47.512;19.104;2023-11-22T04:19:08;22.17;;;12.20;;
79204;SDS011;68632;47.512;19.104;2023-11-22T04:20:10;21.08;;;11.60;;
79204;SDS011;68632;47.512;19.104;2023-11-22T04:21:16;19.38;;;11.23;;
79204;SDS011;68632;47.512;19.104;2023-11-22T04:22:19;21.73;;;12.00;;
79204;SDS011;68632;47.512;19.104;2023-11-22T04:23:21;21.10;;;11.80;;
79204;SDS011;68632;47.512;19.104;2023-11-22T04:24:23;18.58;;;10.57;;
79204;SDS011;68632;47.512;19.104;2023-11-22T04:25:25;16.75;;;9.90;;
79204;SDS011;68632;47.512;19.104;2023-11-22T04:26:27;23.48;;;11.20;;
79204;SDS011;68632;47.512;19.104;2023-11-22T04:27:30;20.70;;;10.02;;
79204;SDS011;68632;47.512;19.104;2023-11-22T04:28:32;18.27;;;10.73;;
79204;SDS011;68632;47.512;19.104;2023-11-22T04:29:34;20.02;;;11.93;;
79204;SDS011;68632;47.512;19.104;2023-11-22T04:30:36;21.60;;;11.52;;
79204;SDS011;68632;47.512;19.104;2023-11-22T04:31:39;22.77;;;12.25;;
79204;SDS011;68632;47.512;19.104;2023-11-22T04:32:41;21.02;;;10.15;;
79204;SDS011;68632;47.512;19.104;2023-11-22T04:33:49;20.83;;;10.30;;
79204;SDS011;68632;47.512;19.104;2023-11-22T04:34:52;15.73;;;9.15;;
79204;SDS011;68632;47.512;19.104;2023-11-22T04:35:54;17.30;;;10.43;;
79204;SDS011;68632;47.512;19.104;2023-11-22T04:36:56;17.95;;;9.98;;
79204;SDS011;68632;47.512;19.104;2023-11-22T04:37:59;16.77;;;10.43;;
79204;SDS011;68632;47.512;19.104;2023-11-22T04:39:01;21.17;;;11.63;;
79204;SDS011;68632;47.512;19.104;2023-11-22T04:40:05;16.50;;;10.20;;
79204;SDS011;68632;47.512;19.104;2023-11-22T04:41:10;15.70;;;9.73;;
79204;SDS011;68632;47.512;19.104;2023-11-22T04:42:12;16.75;;;11.52;;
79204;SDS011;68632;47.512;19.104;2023-11-22T04:43:15;19.48;;;10.60;;
79204;SDS011;68632;47.512;19.104;2023-11-22T04:44:17;18.98;;;11.63;;
79204;SDS011;68632;47.512;19.104;2023-11-22T04:45:19;17.13;;;11.15;;
79204;SDS011;68632;47.512;19.104;2023-11-22T04:46:21;19.90;;;10.52;;
79204;SDS011;68632;47.512;19.104;2023-11-22T04:47:23;20.90;;;11.32;;
79204;SDS011;68632;47.512;19.104;2023-11-22T04:48:27;15.10;;;9.52;;
79204;SDS011;68632;47.512;19.104;2023-11-22T04:49:29;19.10;;;10.85;;
79204;SDS011;68632;47.512;19.104;2023-11-22T04:50:34;18.98;;;11.80;;
79204;SDS011;68632;47.512;19.104;2023-11-22T04:51:36;18.27;;;10.63;;
79204;SDS011;68632;47.512;19.104;2023-11-22T04:52:38;16.15;;;9.60;;
79204;SDS011;68632;47.512;19.104;2023-11-22T04:53:41;17.63;;;10.07;;
79204;SDS011;68632;47.512;19.104;2023-11-22T04:54:46;15.07;;;9.07;;
79204;SDS011;68632;47.512;19.104;2023-11-22T04:55:48;16.30;;;10.38;;
79204;SDS011;68632;47.512;19.104;2023-11-22T04:56:51;13.73;;;8.98;;
79204;SDS011;68632;47.512;19.104;2023-11-22T04:57:53;16.85;;;9.88;;
79204;SDS011;68632;47.512;19.104;2023-11-22T04:58:55;16.92;;;9.32;;
79204;SDS011;68632;47.512;19.104;2023-11-22T04:59:58;15.90;;;10.23;;
79204;SDS011;68632;47.512;19.104;2023-11-22T05:01:02;16.17;;;9.18;;
79204;SDS011;68632;47.512;19.104;2023-11-22T05:02:04;17.20;;;10.30;;
79204;SDS011;68632;47.512;19.104;2023-11-22T05:03:08;16.15;;;9.18;;
79204;SDS011;68632;47.512;19.104;2023-11-22T05:04:10;15.45;;;9.68;;
79204;SDS011;68632;47.512;19.104;2023-11-22T05:05:13;16.85;;;10.80;;
79204;SDS011;68632;47.512;19.104;2023-11-22T05:06:15;15.60;;;8.75;;
79204;SDS011;68632;47.512;19.104;2023-11-22T05:07:18;15.20;;;9.27;;
79204;SDS011;68632;47.512;19.104;2023-11-22T05:08:24;18.27;;;9.88;;
79204;SDS011;68632;47.512;19.104;2023-11-22T05:09:27;13.85;;;8.98;;
79204;SDS011;68632;47.512;19.104;2023-11-22T05:10:29;15.98;;;9.55;;
79204;SDS011;68632;47.512;19.104;2023-11-22T05:11:31;15.32;;;9.45;;
79204;SDS011;68632;47.512;19.104;2023-11-22T05:12:34;13.73;;;9.48;;
79204;SDS011;68632;47.512;19.104;2023-11-22T05:13:36;17.38;;;10.68;;
79204;SDS011;68632;47.512;19.104;2023-11-22T05:14:38;20.30;;;10.73;;
79204;SDS011;68632;47.512;19.104;2023-11-22T05:15:41;18.58;;;9.00;;
79204;SDS011;68632;47.512;19.104;2023-11-22T05:16:43;14.63;;;8.68;;
79204;SDS011;68632;47.512;19.104;2023-11-22T05:17:45;19.38;;;10.55;;
79204;SDS011;68632;47.512;19.104;2023-11-22T05:18:47;17.88;;;10.00;;
79204;SDS011;68632;47.512;19.104;2023-11-22T05:19:50;18.13;;;10.95;;
79204;SDS011;68632;47.512;19.104;2023-11-22T05:20:52;19.60;;;11.00;;
79204;SDS011;68632;47.512;19.104;2023-11-22T05:21:55;17.63;;;10.25;;
79204;SDS011;68632;47.512;19.104;2023-11-22T05:22:57;14.63;;;8.18;;
79204;SDS011;68632;47.512;19.104;2023-11-22T05:23:59;18.83;;;10.75;;
79204;SDS011;68632;47.512;19.104;2023-11-22T05:25:01;14.02;;;8.63;;
79204;SDS011;68632;47.512;19.104;2023-11-22T05:26:03;18.63;;;11.35;;
79204;SDS011;68632;47.512;19.104;2023-11-22T05:27:09;19.13;;;10.35;;
79204;SDS011;68632;47.512;19.104;2023-11-22T05:28:11;18.33;;;11.45;;
79204;SDS011;68632;47.512;19.104;2023-11-22T05:29:13;12.98;;;7.95;;
79204;SDS011;68632;47.512;19.104;2023-11-22T05:30:16;17.00;;;9.57;;
79204;SDS011;68632;47.512;19.104;2023-11-22T05:31:21;15.52;;;8.95;;
79204;SDS011;68632;47.512;19.104;2023-11-22T05:32:25;15.65;;;9.32;;
79204;SDS011;68632;47.512;19.104;2023-11-22T05:33:27;16.75;;;10.18;;
79204;SDS011;68632;47.512;19.104;2023-11-22T05:34:29;10.73;;;7.80;;
79204;SDS011;68632;47.512;19.104;2023-11-22T05:35:31;12.45;;;7.45;;
79204;SDS011;68632;47.512;19.104;2023-11-22T05:36:34;13.32;;;7.10;;
79204;SDS011;68632;47.512;19.104;2023-11-22T05:37:36;14.88;;;8.85;;
79204;SDS011;68632;47.512;19.104;2023-11-22T05:38:39;14.60;;;9.02;;
79204;SDS011;68632;47.512;19.104;2023-11-22T05:39:41;16.33;;;9.45;;
79204;SDS011;68632;47.512;19.104;2023-11-22T05:40:43;15.65;;;8.48;;
79204;SDS011;68632;47.512;19.104;2023-11-22T05:41:45;17.23;;;8.55;;
79204;SDS011;68632;47.512;19.104;2023-11-22T05:42:47;13.30;;;8.07;;
79204;SDS011;68632;47.512;19.104;2023-11-22T05:43:50;18.63;;;10.30;;
79204;SDS011;68632;47.512;19.104;2023-11-22T05:44:52;17.45;;;9.75;;
79204;SDS011;68632;47.512;19.104;2023-11-22T05:45:54;13.30;;;8.35;;
79204;SDS011;68632;47.512;19.104;2023-11-22T05:46:56;17.98;;;11.30;;
79204;SDS011;68632;47.512;19.104;2023-11-22T05:47:59;14.60;;;8.52;;
79204;SDS011;68632;47.512;19.104;2023-11-22T05:49:01;17.88;;;10.75;;
79204;SDS011;68632;47.512;19.104;2023-11-22T05:50:04;21.08;;;10.90;;
79204;SDS011;68632;47.512;19.104;2023-11-22T05:51:07;18.20;;;10.02;;
79204;SDS011;68632;47.512;19.104;2023-11-22T05:52:10;21.40;;;10.55;;
79204;SDS011;68632;47.512;19.104;2023-11-22T05:53:12;21.75;;;9.63;;
79204;SDS011;68632;47.512;19.104;2023-11-22T05:54:21;19.45;;;11.65;;
79204;SDS011;68632;47.512;19.104;2023-11-22T05:55:23;21.00;;;12.02;;
79204;SDS011;68632;47.512;19.104;2023-11-22T05:56:25;19.85;;;10.95;;
79204;SDS011;68632;47.512;19.104;2023-11-22T05:57:27;19.42;;;10.07;;
79204;SDS011;68632;47.512;19.104;2023-11-22T05:58:29;19.55;;;10.23;;
79204;SDS011;68632;47.512;19.104;2023-11-22T05:59:32;16.27;;;9.73;;
79204;SDS011;68632;47.512;19.104;2023-11-22T06:00:34;18.10;;;9.32;;
79204;SDS011;68632;47.512;19.104;2023-11-22T06:01:36;13.77;;;9.07;;
79204;SDS011;68632;47.512;19.104;2023-11-22T06:02:38;18.02;;;10.90;;
79204;SDS011;68632;47.512;19.104;2023-11-22T06:03:41;15.73;;;9.70;;